Time;durP1;ratioP1;P1;durP2;ratioP2;P2;SDS_P1;SDS_P2;PMS_P1;PMS_P2;Temp;Humidity;BMP_temperature;BMP_pressure;BME280_temperature;BME280_humidity;BME280_pressure;Samples;Min_cycle;Max_cycle;Signal;HPM_P1;HPM_P2
2020/12/15 00:00:11;;;;;;;;;60.25;43.75;;;;;1.95;95.00;100465.06;5050747;28;8823;-58
2020/12/15 00:02:38;;;;;;;;;43.25;30.50;;;;;1.96;95.21;100467.69;5054378;28;8804;-55
2020/12/15 00:05:06;;;;;;;;;48.75;42.00;;;;;1.84;95.16;100459.88;5051580;28;8881;-58
2020/12/15 00:07:33;;;;;;;;;51.25;33.50;;;;;1.90;95.25;100456.31;5033693;28;8846;-57
2020/12/15 00:09:59;;;;;;;;;56.00;39.25;;;;;1.85;95.29;100463.44;5060360;28;8823;-57
2020/12/15 00:12:26;;;;;;;;;53.75;41.75;;;;;1.90;95.04;100467.78;5051876;28;8896;-59
2020/12/15 00:14:54;;;;;;;;;50.25;31.00;;;;;2.00;95.30;100470.28;5060293;28;8836;-57
2020/12/15 00:17:21;;;;;;;;;40.75;33.25;;;;;2.08;94.99;100468.38;5039823;28;8831;-56
2020/12/15 00:19:48;;;;;;;;;52.25;37.50;;;;;2.02;95.07;100465.84;5032820;28;8843;-56
2020/12/15 00:22:16;;;;;;;;;50.75;39.25;;;;;1.84;94.85;100466.97;5033244;28;8869;-54
2020/12/15 00:24:45;;;;;;;;;46.50;27.50;;;;;1.77;95.33;100471.47;5045988;28;8873;-55
2020/12/15 00:27:12;;;;;;;;;52.25;32.75;;;;;1.76;95.12;100469.72;5039696;28;8912;-54
2020/12/15 00:29:39;;;;;;;;;62.75;44.00;;;;;1.70;95.44;100461.84;5056424;28;9587;-58
2020/12/15 00:32:11;;;;;;;;;49.75;34.50;;;;;1.77;95.76;100460.88;5042400;28;8824;-54
2020/12/15 00:34:38;;;;;;;;;52.50;39.75;;;;;1.80;95.10;100460.84;5040679;28;8908;-56
2020/12/15 00:37:08;;;;;;;;;45.25;36.50;;;;;1.74;95.21;100466.22;5055822;28;8820;-57
2020/12/15 00:39:36;;;;;;;;;47.75;38.25;;;;;1.77;95.44;100462.66;5033271;28;8867;-55
2020/12/15 00:42:03;;;;;;;;;55.25;34.50;;;;;1.85;95.03;100466.94;5055077;28;8846;-57
2020/12/15 00:44:30;;;;;;;;;50.75;39.75;;;;;1.95;95.12;100463.28;5049630;28;9560;-56
2020/12/15 00:46:57;;;;;;;;;62.75;39.50;;;;;1.76;94.74;100456.47;5040464;28;8815;-53
2020/12/15 00:49:24;;;;;;;;;55.50;43.75;;;;;1.74;95.36;100460.94;5050105;28;8945;-56
2020/12/15 00:51:51;;;;;;;;;57.75;38.50;;;;;1.80;95.64;100462.63;5050285;28;8884;-57
2020/12/15 00:54:18;;;;;;;;;35.75;32.25;;;;;1.75;95.28;100460.03;5047047;28;8851;-59
2020/12/15 00:56:45;;;;;;;;;53.50;41.50;;;;;1.75;95.19;100452.94;5058732;28;8829;-55
2020/12/15 00:59:12;;;;;;;;;56.25;41.25;;;;;1.77;95.57;100452.94;5045235;28;8843;-56
2020/12/15 01:01:39;;;;;;;;;47.50;33.25;;;;;1.80;95.73;100459.97;5051029;28;8941;-53
2020/12/15 01:04:07;;;;;;;;;53.00;34.50;;;;;1.97;95.19;100464.16;5049925;28;8920;-54
2020/12/15 01:06:34;;;;;;;;;68.75;45.00;;;;;1.71;95.72;100456.56;5055964;28;8934;-54
2020/12/15 01:09:01;;;;;;;;;52.00;40.50;;;;;1.72;95.55;100450.34;5032575;28;8946;-56
2020/12/15 01:11:29;;;;;;;;;57.25;42.00;;;;;1.81;95.27;100454.63;5050401;28;9491;-53
2020/12/15 01:13:57;;;;;;;;;48.75;33.50;;;;;1.74;95.36;100450.34;5050286;28;8993;-52
2020/12/15 01:16:24;;;;;;;;;63.25;43.25;;;;;1.82;95.79;100461.72;5032919;28;8823;-55
2020/12/15 01:18:51;;;;;;;;;47.75;39.75;;;;;1.76;95.90;100459.13;5055331;28;8805;-54
2020/12/15 01:21:31;;;;;;;;;53.00;40.00;;;;;1.88;95.60;100458.97;5059638;28;8844;-54
2020/12/15 01:23:58;;;;;;;;;59.00;34.25;;;;;1.89;96.01;100455.41;5048861;28;8863;-58
2020/12/15 01:26:25;;;;;;;;;51.00;37.00;;;;;2.02;95.21;100458.75;5050059;28;8890;-56
2020/12/15 01:28:53;;;;;;;;;34.50;29.00;;;;;1.86;95.26;100450.16;5050277;28;8831;-56
2020/12/15 01:31:27;;;;;;;;;37.25;27.50;;;;;1.80;95.49;100444.97;5033235;28;8827;-54
2020/12/15 01:33:55;;;;;;;;;32.50;24.25;;;;;1.80;95.69;100450.25;5057475;28;8836;-59
2020/12/15 01:36:32;;;;;;;;;39.25;31.50;;;;;1.87;95.59;100445.72;5050307;28;8847;-55
2020/12/15 01:39:00;;;;;;;;;41.00;31.00;;;;;2.01;95.02;100445.56;5054807;28;8840;-54
2020/12/15 01:41:29;;;;;;;;;42.50;30.75;;;;;1.79;95.42;100440.56;5051267;28;8896;-55
2020/12/15 01:44:03;;;;;;;;;38.50;30.25;;;;;1.80;95.33;100439.66;5047320;28;8843;-54
2020/12/15 01:46:32;;;;;;;;;39.50;29.00;;;;;1.82;95.54;100435.22;5033456;28;8855;-57
2020/12/15 01:48:59;;;;;;;;;33.25;25.50;;;;;1.77;95.52;100431.78;5052147;28;8859;-55
2020/12/15 01:51:29;;;;;;;;;40.25;33.00;;;;;1.89;95.48;100438.66;5049780;28;8962;-52
2020/12/15 01:54:00;;;;;;;;;43.50;33.00;;;;;1.86;94.98;100433.41;5059650;28;8828;-55
2020/12/15 01:56:29;;;;;;;;;46.75;37.00;;;;;2.00;94.62;100427.91;5050907;28;8821;-59
2020/12/15 01:59:03;;;;;;;;;30.75;19.50;;;;;1.96;94.94;100435.03;5055361;28;8937;-56
2020/12/15 02:01:42;;;;;;;;;35.50;21.25;;;;;1.85;94.78;100429.03;5050225;28;8967;-58
2020/12/15 02:04:11;;;;;;;;;47.25;40.00;;;;;1.85;95.16;100423.72;5050939;28;8846;-54
2020/12/15 02:06:44;;;;;;;;;39.50;28.00;;;;;1.82;95.40;100427.28;5057993;28;8863;-57
2020/12/15 02:09:11;;;;;;;;;32.50;23.25;;;;;1.74;95.52;100423.88;5057969;28;8811;-57
2020/12/15 02:11:44;;;;;;;;;27.75;20.25;;;;;1.69;94.86;100420.41;5052742;28;8917;-57
2020/12/15 02:14:12;;;;;;;;;23.00;20.75;;;;;1.74;94.98;100413.28;5051474;28;8832;-57
2020/12/15 02:16:42;;;;;;;;;41.75;19.00;;;;;1.69;94.60;100421.28;5027167;28;8858;-57
2020/12/15 02:19:16;;;;;;;;;33.25;21.75;;;;;1.59;94.47;100424.06;5036346;28;8944;-55
2020/12/15 02:22:01;;;;;;;;;26.00;21.50;;;;;1.66;93.89;100418.69;5057507;28;8823;-58
2020/12/15 02:24:29;;;;;;;;;29.75;19.00;;;;;1.68;94.42;100422.16;5061215;28;9992;-56
2020/12/15 02:26:56;;;;;;;;;36.50;23.25;;;;;1.74;94.33;100424.75;5054150;28;8839;-58
2020/12/15 02:29:23;;;;;;;;;35.00;21.50;;;;;1.73;94.96;100430.03;5040376;28;8897;-57
2020/12/15 02:31:51;;;;;;;;;34.25;25.25;;;;;1.71;94.67;100434.47;5052573;28;8811;-53
2020/12/15 02:34:18;;;;;;;;;35.25;24.00;;;;;1.74;94.50;100434.47;5052386;28;9501;-55
2020/12/15 02:36:45;;;;;;;;;37.25;20.75;;;;;1.74;94.31;100439.75;5059101;28;8816;-59
2020/12/15 02:39:16;;;;;;;;;26.25;15.50;;;;;1.63;95.20;100441.66;5052745;28;8827;-56
2020/12/15 02:41:58;;;;;;;;;33.25;21.00;;;;;1.81;94.75;100440.53;5054313;28;8856;-57
2020/12/15 02:44:25;;;;;;;;;32.75;19.50;;;;;1.57;94.76;100449.69;5050809;28;8890;-59
2020/12/15 02:46:52;;;;;;;;;35.50;20.50;;;;;1.90;94.19;100446.59;5053823;28;8912;-59
2020/12/15 02:49:19;;;;;;;;;33.00;23.50;;;;;1.79;93.31;100451.16;5053149;28;8886;-59
2020/12/15 02:51:49;;;;;;;;;26.00;22.00;;;;;1.73;94.06;100443.28;5050503;28;8836;-57
2020/12/15 02:54:18;;;;;;;;;24.75;18.75;;;;;1.72;94.25;100444.19;5054451;28;8812;-54
2020/12/15 02:56:44;;;;;;;;;24.00;17.25;;;;;1.56;94.68;100440.00;5058303;28;8905;-51
2020/12/15 02:59:11;;;;;;;;;36.25;24.25;;;;;1.49;94.43;100437.41;5053815;28;8861;-54
2020/12/15 03:01:44;;;;;;;;;28.50;15.50;;;;;1.57;94.47;100441.72;5058857;28;8971;-58
2020/12/15 03:04:11;;;;;;;;;27.75;19.50;;;;;1.57;94.56;100441.72;5058928;28;8950;-59
2020/12/15 03:06:39;;;;;;;;;28.50;19.00;;;;;1.55;94.21;100436.44;5052083;28;8878;-55
2020/12/15 03:09:09;;;;;;;;;31.00;20.50;;;;;1.59;94.87;100434.66;5035554;28;8847;-58
2020/12/15 03:11:37;;;;;;;;;36.00;21.00;;;;;1.67;93.96;100454.84;5058108;28;8966;-56
2020/12/15 03:14:04;;;;;;;;;27.25;21.75;;;;;1.74;93.73;100460.94;5051172;28;8820;-53
2020/12/15 03:16:31;;;;;;;;;26.75;21.00;;;;;1.68;93.09;100466.28;5056859;28;8859;-58
2020/12/15 03:18:59;;;;;;;;;15.00;13.50;;;;;1.57;93.96;100470.84;5051801;28;8839;-56
2020/12/15 03:21:27;;;;;;;;;36.25;19.50;;;;;1.41;93.74;100460.44;5059256;28;8847;-57
2020/12/15 03:23:58;;;;;;;;;24.50;20.25;;;;;1.53;94.38;100457.66;5057804;28;8807;-53
2020/12/15 03:26:25;;;;;;;;;24.75;13.00;;;;;1.54;94.79;100469.97;5052133;28;9027;-59
2020/12/15 03:28:51;;;;;;;;;27.50;14.75;;;;;1.62;94.30;100466.38;5045584;28;8843;-55
2020/12/15 03:31:18;;;;;;;;;22.50;18.50;;;;;1.45;93.96;100464.81;5066780;28;8860;-56
2020/12/15 03:33:48;;;;;;;;;30.75;22.75;;;;;1.56;94.31;100466.47;5057107;28;8843;-56
2020/12/15 03:36:17;;;;;;;;;553.00;464.00;;;;;1.69;93.56;100468.06;5061830;28;8841;-55
2020/12/15 03:38:44;;;;;;;;;45.75;32.50;;;;;1.42;94.16;100464.84;5034025;28;8948;-57
2020/12/15 03:41:11;;;;;;;;;85.75;68.50;;;;;1.54;94.22;100467.34;5041659;28;8859;-59
2020/12/15 03:43:40;;;;;;;;;30.75;24.50;;;;;1.30;94.04;100467.63;5050780;28;8855;-57
2020/12/15 03:46:07;;;;;;;;;40.00;25.00;;;;;1.51;93.88;100475.31;5057216;28;8925;-55
2020/12/15 03:48:34;;;;;;;;;38.75;24.25;;;;;1.40;93.49;100465.78;5048401;28;8808;-55
2020/12/15 03:51:01;;;;;;;;;28.50;18.25;;;;;1.43;94.31;100476.31;5055214;28;9790;-51
2020/12/15 03:53:28;;;;;;;;;32.50;22.75;;;;;1.36;93.96;100475.50;5034264;28;8831;-59
2020/12/15 03:55:55;;;;;;;;;28.25;22.25;;;;;1.32;94.47;100473.78;5051481;28;8835;-56
2020/12/15 03:58:22;;;;;;;;;21.50;16.50;;;;;1.36;93.71;100487.84;5050548;28;8920;-59
2020/12/15 04:00:49;;;;;;;;;32.75;22.00;;;;;1.45;93.75;100478.03;5058888;28;8854;-52
2020/12/15 04:03:16;;;;;;;;;37.75;19.25;;;;;1.32;93.99;100476.44;5050800;28;8815;-55
2020/12/15 04:05:43;;;;;;;;;33.50;21.00;;;;;1.48;94.17;100483.28;5035061;28;8859;-58
2020/12/15 04:08:09;;;;;;;;;34.25;22.00;;;;;1.38;93.78;100479.00;5049481;28;8962;-58
2020/12/15 04:10:36;;;;;;;;;37.25;24.00;;;;;1.25;94.01;100477.38;5050467;28;8937;-55
2020/12/15 04:13:03;;;;;;;;;36.50;29.75;;;;;1.30;94.01;100475.56;5050401;28;8908;-55
2020/12/15 04:15:30;;;;;;;;;36.50;26.50;;;;;1.22;94.19;100472.13;5050719;28;8903;-54
2020/12/15 04:17:57;;;;;;;;;39.25;27.50;;;;;1.26;94.48;100468.53;5051995;28;8823;-56
2020/12/15 04:20:24;;;;;;;;;42.75;25.75;;;;;1.14;94.56;100474.84;5050650;28;8865;-54
2020/12/15 04:22:51;;;;;;;;;43.00;30.25;;;;;1.29;94.89;100468.50;5049427;28;9473;-55
2020/12/15 04:25:18;;;;;;;;;45.75;27.50;;;;;1.18;93.90;100459.81;5050382;28;8847;-57
2020/12/15 04:27:45;;;;;;;;;35.50;23.25;;;;;1.28;93.99;100453.53;5052827;28;8829;-55
2020/12/15 04:30:12;;;;;;;;;39.50;28.50;;;;;1.28;94.46;100462.34;5054165;28;8928;-56
2020/12/15 04:32:39;;;;;;;;;34.25;21.00;;;;;1.32;93.91;100465.84;5053248;28;8965;-52
2020/12/15 04:35:06;;;;;;;;;55.00;35.00;;;;;1.26;94.44;100457.97;5050137;28;8912;-59
2020/12/15 04:37:33;;;;;;;;;60.75;30.50;;;;;1.40;94.40;100465.78;5040315;28;8954;-58
2020/12/15 04:40:00;;;;;;;;;21.50;21.00;;;;;1.18;93.97;100471.28;5033939;28;8875;-55
2020/12/15 04:42:28;;;;;;;;;37.25;27.25;;;;;1.20;94.42;100473.91;5054440;28;8836;-56
2020/12/15 04:44:55;;;;;;;;;42.25;28.50;;;;;1.26;94.38;100479.13;5050162;28;9494;-61
2020/12/15 04:47:45;;;;;;;;;39.50;27.75;;;;;1.21;94.45;100486.22;5050388;28;8835;-54
2020/12/15 04:50:15;;;;;;;;;42.25;25.50;;;;;1.18;94.44;100479.19;5050200;28;8914;-58
2020/12/15 04:52:58;;;;;;;;;39.00;22.25;;;;;1.34;94.28;100486.97;5050557;28;8820;-54
2020/12/15 04:55:26;;;;;;;;;40.75;24.00;;;;;1.31;94.67;100493.19;5029488;28;8839;-56
2020/12/15 04:58:00;;;;;;;;;38.00;26.50;;;;;1.37;94.73;100490.50;5037904;28;8817;-58
2020/12/15 05:00:27;;;;;;;;;26.50;18.00;;;;;1.20;94.85;100495.94;5051259;28;8845;-58
2020/12/15 05:02:55;;;;;;;;;31.50;24.50;;;;;1.25;94.19;100502.06;5054061;28;8869;-56
2020/12/15 05:05:25;;;;;;;;;84.50;59.00;;;;;1.21;94.25;100502.09;5052823;28;8858;-59
2020/12/15 05:07:54;;;;;;;;;95.75;66.50;;;;;1.30;94.67;100507.31;5043953;28;9813;-58
2020/12/15 05:10:21;;;;;;;;;23.50;16.00;;;;;1.27;94.49;100499.41;5051609;28;8848;-61
2020/12/15 05:12:48;;;;;;;;;39.50;30.00;;;;;1.34;94.24;100498.44;5049570;28;8968;-58
2020/12/15 05:15:17;;;;;;;;;36.75;25.25;;;;;1.29;94.48;100510.81;5049063;28;8813;-53
2020/12/15 05:17:45;;;;;;;;;42.25;30.00;;;;;1.43;94.80;100514.22;5041464;28;8821;-58
2020/12/15 05:20:26;;;;;;;;;31.75;23.50;;;;;1.43;94.11;100514.22;5040260;28;8835;-53
2020/12/15 05:22:55;;;;;;;;;34.50;24.50;;;;;1.27;94.56;100525.88;5049895;28;8946;-57
2020/12/15 05:25:34;;;;;;;;;29.00;22.50;;;;;1.29;94.42;100521.41;5039088;28;8937;-52
2020/12/15 05:28:11;;;;;;;;;41.50;25.00;;;;;1.28;94.37;100520.53;5042055;28;8916;-57
2020/12/15 05:30:39;;;;;;;;;31.25;21.50;;;;;1.33;94.28;100520.50;5049551;28;9793;-58
2020/12/15 05:33:15;;;;;;;;;30.25;23.00;;;;;1.31;94.89;100522.28;5050033;28;8816;-52
2020/12/15 05:35:43;;;;;;;;;48.00;27.00;;;;;1.23;94.37;100521.47;5050738;28;8843;-57
2020/12/15 05:38:10;;;;;;;;;32.00;22.50;;;;;1.25;94.86;100517.94;5032595;28;8839;-57
2020/12/15 05:40:39;;;;;;;;;47.25;22.50;;;;;1.33;95.28;100511.69;5033245;28;8865;-54
2020/12/15 05:43:07;;;;;;;;;35.50;27.50;;;;;1.32;95.37;100516.13;5043674;28;8961;-54
2020/12/15 05:45:34;;;;;;;;;43.50;27.25;;;;;1.33;94.71;100520.50;5048181;28;9679;-55
2020/12/15 05:48:08;;;;;;;;;30.50;25.50;;;;;1.30;94.59;100523.19;5052381;28;8811;-56
2020/12/15 05:50:38;;;;;;;;;45.00;34.00;;;;;1.23;95.61;100527.66;5054872;28;8821;-57
2020/12/15 05:53:08;;;;;;;;;33.50;24.75;;;;;1.50;95.22;100526.50;5044336;28;8839;-57
2020/12/15 05:55:35;;;;;;;;;30.50;25.25;;;;;1.27;94.73;100524.09;5046601;28;8833;-59
2020/12/15 05:58:06;;;;;;;;;39.00;22.00;;;;;1.28;94.42;100519.66;5053279;28;8832;-56
2020/12/15 06:00:33;;;;;;;;;27.75;18.75;;;;;1.34;94.47;100524.00;5056906;28;8839;-58
2020/12/15 06:03:07;;;;;;;;;34.75;25.50;;;;;1.45;94.40;100530.97;5035803;28;8874;-58
2020/12/15 06:05:37;;;;;;;;;26.75;20.50;;;;;1.24;94.76;100518.84;5055891;28;8935;-55
2020/12/15 06:08:06;;;;;;;;;52.25;33.50;;;;;1.27;94.48;100517.94;5020432;28;8863;-56
2020/12/15 06:10:35;;;;;;;;;61.25;38.00;;;;;1.16;95.18;100519.78;5052953;28;9712;-59
2020/12/15 06:13:04;;;;;;;;;53.25;41.50;;;;;1.27;94.70;100517.94;5053206;28;8881;-58
2020/12/15 06:15:31;;;;;;;;;61.50;41.00;;;;;1.27;94.26;100523.22;5053572;28;9506;-56
2020/12/15 06:18:03;;;;;;;;;67.25;44.00;;;;;1.34;94.79;100524.00;5059102;28;9549;-55
2020/12/15 06:20:35;;;;;;;;;57.25;38.00;;;;;1.22;94.84;100523.25;5036807;28;8938;-55
2020/12/15 06:23:06;;;;;;;;;122.75;96.25;;;;;1.24;95.26;100528.53;5043765;28;8892;-57
2020/12/15 06:25:37;;;;;;;;;57.50;29.25;;;;;1.28;95.07;100530.25;5055209;28;8844;-54
2020/12/15 06:28:08;;;;;;;;;50.25;35.25;;;;;1.35;95.36;100526.66;5052332;28;8900;-54
2020/12/15 06:30:41;;;;;;;;;29.75;24.25;;;;;1.41;94.63;100531.88;5046435;28;8923;-54
2020/12/15 06:33:11;;;;;;;;;44.25;29.00;;;;;1.33;94.27;100528.44;5051933;28;8821;-57
2020/12/15 06:35:39;;;;;;;;;53.00;34.00;;;;;1.32;94.76;100537.28;5062887;28;8836;-58
2020/12/15 06:38:21;;;;;;;;;54.00;39.50;;;;;1.41;95.03;100526.59;5037476;28;8854;-57
2020/12/15 06:40:49;;;;;;;;;33.50;22.00;;;;;1.33;94.42;100528.44;5053591;28;8847;-61
2020/12/15 06:43:30;;;;;;;;;42.75;29.25;;;;;1.34;93.79;100540.75;5052181;28;9497;-58
2020/12/15 06:46:07;;;;;;;;;29.00;21.25;;;;;1.28;94.23;100533.78;5049664;28;8928;-54
2020/12/15 06:48:35;;;;;;;;;42.75;27.75;;;;;1.20;95.14;100540.03;5035967;28;8830;-57
2020/12/15 06:51:03;;;;;;;;;40.25;27.50;;;;;1.28;94.64;100547.00;5051899;28;8835;-59
2020/12/15 06:53:31;;;;;;;;;52.00;38.50;;;;;1.36;94.89;100544.28;5053349;28;8831;-56
2020/12/15 06:56:03;;;;;;;;;65.25;45.75;;;;;1.29;95.38;100551.41;5055298;28;9540;-56
2020/12/15 06:58:32;;;;;;;;;55.25;39.50;;;;;1.33;95.16;100549.59;5052563;28;8954;-54
2020/12/15 07:01:03;;;;;;;;;36.25;27.25;;;;;1.46;94.88;100551.22;5052102;28;8827;-59
2020/12/15 07:03:44;;;;;;;;;28.75;17.00;;;;;1.35;94.86;100549.59;5043838;28;8811;-59
2020/12/15 07:06:15;;;;;;;;;54.75;35.50;;;;;1.47;95.60;100545.03;5043543;28;8943;-56
2020/12/15 07:08:43;;;;;;;;;39.00;30.75;;;;;1.19;96.00;100549.75;5059000;28;8864;-58
2020/12/15 07:11:10;;;;;;;;;57.25;29.00;;;;;1.32;95.10;100558.44;5052408;28;8885;-56
2020/12/15 07:13:37;;;;;;;;;46.50;33.75;;;;;1.29;95.29;100547.88;5057249;28;8839;-54
2020/12/15 07:16:04;;;;;;;;;55.00;31.50;;;;;1.31;95.27;100543.44;5051810;28;8974;-56
2020/12/15 07:18:34;;;;;;;;;47.25;37.00;;;;;1.30;95.62;100539.06;5053077;28;9565;-55
2020/12/15 07:21:05;;;;;;;;;49.75;33.50;;;;;1.31;95.14;100532.84;5050588;28;8819;-59
2020/12/15 07:23:49;;;;;;;;;49.75;34.50;;;;;1.28;95.22;100520.53;5036546;28;8835;-54
2020/12/15 07:26:18;;;;;;;;;38.00;28.25;;;;;1.50;94.92;100536.19;5049467;28;8959;-56
2020/12/15 07:28:48;;;;;;;;;60.00;42.50;;;;;1.40;95.17;100532.78;5051859;28;8958;-57
2020/12/15 07:31:29;;;;;;;;;63.75;39.75;;;;;1.33;94.89;100532.84;5054348;28;8938;-59
2020/12/15 07:34:19;;;;;;;;;30.50;22.50;;;;;1.29;94.70;100542.56;5054275;28;8827;-56
2020/12/15 07:36:50;;;;;;;;;30.00;23.50;;;;;1.24;94.36;100539.13;5040809;28;8854;-60
2020/12/15 07:39:18;;;;;;;;;31.25;24.50;;;;;1.29;94.49;100534.63;5040450;28;8920;-56
2020/12/15 07:42:03;;;;;;;;;35.75;22.75;;;;;1.34;94.64;100534.59;5055430;28;8825;-58
2020/12/15 07:44:43;;;;;;;;;49.25;29.75;;;;;1.44;94.16;100529.19;5070205;28;8852;-53
2020/12/15 07:47:10;;;;;;;;;32.25;26.00;;;;;1.27;94.27;100524.09;5071028;28;8848;-58
2020/12/15 07:49:38;;;;;;;;;32.00;21.50;;;;;1.52;94.06;100524.69;5071763;28;8844;-56
2020/12/15 07:52:05;;;;;;;;;30.75;26.75;;;;;1.35;94.14;100523.16;5057862;28;8843;-58
2020/12/15 07:54:32;;;;;;;;;28.75;18.50;;;;;1.43;93.53;100529.22;5051388;28;8831;-58
2020/12/15 07:57:01;;;;;;;;;27.50;17.50;;;;;1.37;94.54;100531.91;5055691;28;8847;-56
2020/12/15 07:59:31;;;;;;;;;36.50;27.00;;;;;1.37;94.50;100529.28;5049861;28;8906;-55
2020/12/15 08:01:58;;;;;;;;;33.50;23.25;;;;;1.37;94.51;100529.28;5048567;28;9496;-57
2020/12/15 08:04:25;;;;;;;;;36.50;26.00;;;;;1.35;94.79;100524.00;5050533;28;8847;-53
2020/12/15 08:06:52;;;;;;;;;34.50;20.00;;;;;1.36;94.40;100525.75;5050080;28;8978;-57
2020/12/15 08:09:19;;;;;;;;;40.75;25.75;;;;;1.23;94.44;100540.00;5051033;28;8888;-54
2020/12/15 08:11:48;;;;;;;;;32.50;24.50;;;;;1.24;94.58;100544.41;5049881;28;8819;-54
2020/12/15 08:14:19;;;;;;;;;35.50;20.00;;;;;1.37;95.45;100545.16;5057961;28;8937;-56
2020/12/15 08:16:47;;;;;;;;;50.00;34.50;;;;;1.37;95.33;100547.78;5033598;28;8909;-55
2020/12/15 08:19:16;;;;;;;;;38.50;25.25;;;;;1.35;94.91;100555.75;5035263;28;8923;-60
2020/12/15 08:21:50;;;;;;;;;41.50;26.50;;;;;1.43;94.61;100560.97;5041812;28;8856;-56
2020/12/15 08:24:27;;;;;;;;;46.00;28.00;;;;;1.51;94.73;100564.41;5051507;28;8841;-56
2020/12/15 08:26:54;;;;;;;;;51.50;27.75;;;;;1.49;94.92;100560.91;5036299;28;8873;-56
2020/12/15 08:29:28;;;;;;;;;28.25;23.75;;;;;1.40;94.58;100564.53;5050158;28;8833;-58
2020/12/15 08:31:55;;;;;;;;;32.50;25.75;;;;;1.29;94.61;100569.03;5035971;28;8853;-58
2020/12/15 08:34:22;;;;;;;;;40.75;27.50;;;;;1.54;94.74;100569.69;5050539;28;9820;-56
2020/12/15 08:36:53;;;;;;;;;42.00;26.50;;;;;1.48;94.88;100575.03;5040801;28;8862;-57
2020/12/15 08:39:30;;;;;;;;;51.50;33.75;;;;;1.46;94.67;100585.63;5033845;28;8827;-58
2020/12/15 08:41:59;;;;;;;;;24.75;18.50;;;;;1.39;94.61;100588.34;5047122;28;8828;-61
2020/12/15 08:44:27;;;;;;;;;39.50;26.50;;;;;1.58;94.51;100581.09;5057735;28;8836;-57
2020/12/15 08:46:56;;;;;;;;;37.25;30.25;;;;;1.44;94.78;100590.06;5050150;28;9489;-58
2020/12/15 08:49:26;;;;;;;;;94.50;69.25;;;;;1.37;95.16;100585.72;5041139;28;9446;-54
2020/12/15 08:51:54;;;;;;;;;36.25;26.25;;;;;1.61;94.03;100592.53;5058586;28;8870;-56
2020/12/15 08:54:22;;;;;;;;;32.00;22.00;;;;;1.52;94.97;100589.97;5050599;28;8965;-59
2020/12/15 08:56:49;;;;;;;;;40.50;30.50;;;;;1.57;94.75;100589.94;5055532;28;8839;-59
2020/12/15 08:59:20;;;;;;;;;33.75;18.50;;;;;1.60;94.45;100595.19;5039295;28;8862;-57
2020/12/15 09:01:48;;;;;;;;;50.00;37.50;;;;;1.68;94.31;100596.00;5049154;28;8844;-59
2020/12/15 09:04:26;;;;;;;;;29.75;22.00;;;;;1.63;94.46;100595.16;5035577;28;8979;-57
2020/12/15 09:06:53;;;;;;;;;45.25;28.75;;;;;1.75;94.45;100595.03;5054008;28;8891;-59
2020/12/15 09:09:30;;;;;;;;;47.00;36.00;;;;;1.56;94.90;100593.50;5033628;28;8819;-53
2020/12/15 09:11:57;;;;;;;;;77.00;54.25;;;;;1.67;94.95;100596.91;5050824;28;8901;-57
2020/12/15 09:14:24;;;;;;;;;31.75;22.00;;;;;1.63;95.02;100595.16;5052971;28;8831;-57
2020/12/15 09:16:51;;;;;;;;;28.50;12.75;;;;;1.57;94.80;100590.81;5053823;28;8826;-59
2020/12/15 09:19:21;;;;;;;;;77.25;52.25;;;;;1.57;95.15;100589.94;5053210;28;8851;-57
2020/12/15 09:22:07;;;;;;;;;36.75;28.00;;;;;1.54;94.58;100597.00;5027589;28;8815;-56
2020/12/15 09:24:41;;;;;;;;;34.25;23.50;;;;;1.70;95.38;100596.84;5057881;28;8824;-58
2020/12/15 09:27:29;;;;;;;;;31.50;22.00;;;;;1.67;94.70;100591.59;5023713;28;8921;-53
2020/12/15 09:30:02;;;;;;;;;46.50;34.25;;;;;1.74;94.41;100595.94;5051198;28;8912;-56
2020/12/15 09:32:33;;;;;;;;;82.50;57.25;;;;;1.70;94.86;100595.06;5050011;28;8959;-57
2020/12/15 09:35:02;;;;;;;;;55.25;42.25;;;;;1.74;94.62;100593.28;5033045;28;8838;-55
2020/12/15 09:37:31;;;;;;;;;46.25;30.00;;;;;1.70;95.35;100589.78;5049540;28;8850;-56
2020/12/15 09:40:04;;;;;;;;;81.75;57.00;;;;;1.71;94.95;100590.66;5043042;28;8851;-55
2020/12/15 09:42:34;;;;;;;;;101.75;72.50;;;;;1.67;95.45;100591.59;5049831;28;8982;-56
2020/12/15 09:45:02;;;;;;;;;100.25;72.75;;;;;1.74;95.59;100583.56;5049517;28;9781;-54
2020/12/15 09:47:30;;;;;;;;;52.75;41.50;;;;;1.58;94.83;100586.38;5033716;28;8846;-56
2020/12/15 09:49:57;;;;;;;;;66.25;49.00;;;;;1.47;95.48;100587.38;5035884;28;8843;-58
2020/12/15 09:52:28;;;;;;;;;138.75;87.25;;;;;1.54;95.37;100589.06;5044601;28;8912;-59
2020/12/15 09:54:55;;;;;;;;;69.75;43.25;;;;;1.61;94.85;100589.91;5029005;28;8854;-53
2020/12/15 09:57:24;;;;;;;;;82.25;56.25;;;;;1.70;94.76;100589.78;5049301;28;8863;-56
2020/12/15 09:59:55;;;;;;;;;66.00;43.25;;;;;1.54;95.17;100586.41;5056266;28;10155;-57
2020/12/15 10:02:27;;;;;;;;;32.25;21.75;;;;;1.46;94.68;100584.75;5032767;28;8859;-55
2020/12/15 10:04:57;;;;;;;;;24.50;15.00;;;;;1.48;94.61;100585.63;5057241;28;8848;-55
2020/12/15 10:07:25;;;;;;;;;42.50;30.00;;;;;1.51;94.72;100583.81;5043316;28;8944;-58
2020/12/15 10:09:58;;;;;;;;;31.75;23.50;;;;;1.70;95.01;100573.91;5054101;28;8854;-58
2020/12/15 10:12:45;;;;;;;;;37.00;25.75;;;;;1.75;94.86;100568.56;5030134;28;8929;-58
2020/12/15 10:15:14;;;;;;;;;52.50;30.25;;;;;1.63;94.36;100579.28;5048277;28;8937;-58
2020/12/15 10:17:41;;;;;;;;;32.00;23.50;;;;;1.60;94.66;100568.72;5052483;28;9480;-59
2020/12/15 10:20:16;;;;;;;;;28.25;21.50;;;;;1.56;94.51;100572.31;5048147;28;8888;-59
2020/12/15 10:22:45;;;;;;;;;56.25;39.25;;;;;1.44;94.05;100566.25;5048738;28;8866;-59
2020/12/15 10:25:14;;;;;;;;;113.00;78.25;;;;;1.50;95.39;100565.28;5048094;28;8827;-56
2020/12/15 10:27:44;;;;;;;;;78.50;51.75;;;;;1.66;94.43;100555.41;5050313;28;8859;-59
2020/12/15 10:30:12;;;;;;;;;30.50;24.00;;;;;1.62;94.78;100556.38;5044917;28;8837;-61
2020/12/15 10:32:46;;;;;;;;;18.75;13.00;;;;;1.40;94.19;100561.00;5037527;28;8896;-58
2020/12/15 10:35:15;;;;;;;;;20.00;13.75;;;;;1.47;93.56;100568.84;5053816;28;8843;-57
2020/12/15 10:37:43;;;;;;;;;20.50;14.50;;;;;1.59;93.87;100567.00;5041389;28;9501;-58
2020/12/15 10:40:10;;;;;;;;;39.25;23.50;;;;;1.60;94.42;100566.09;5050603;28;8863;-57
2020/12/15 10:42:38;;;;;;;;;79.25;53.75;;;;;1.49;94.16;100566.19;5034476;28;8839;-61
2020/12/15 10:45:07;;;;;;;;;99.75;73.25;;;;;1.48;94.25;100562.69;5051402;28;8851;-58
2020/12/15 10:47:36;;;;;;;;;185.25;151.75;;;;;1.58;94.70;100557.28;5047230;28;9504;-62
2020/12/15 10:50:05;;;;;;;;;101.00;73.00;;;;;1.39;94.37;100554.81;5035319;28;8850;-59
2020/12/15 10:52:32;;;;;;;;;47.25;35.25;;;;;1.47;94.83;100566.19;5052192;28;8826;-57
2020/12/15 10:55:02;;;;;;;;;36.75;24.00;;;;;1.47;94.87;100558.25;5037704;28;8873;-58
2020/12/15 10:57:30;;;;;;;;;44.00;31.00;;;;;1.49;94.49;100556.47;5050811;28;8846;-56
2020/12/15 10:59:58;;;;;;;;;36.25;26.25;;;;;1.57;94.66;100558.19;5050665;28;8858;-60
2020/12/15 11:02:28;;;;;;;;;42.00;35.00;;;;;1.46;95.11;100561.81;5048702;28;8848;-55
2020/12/15 11:05:06;;;;;;;;;69.50;56.00;;;;;1.51;94.73;100556.47;5057763;28;9482;-60
2020/12/15 11:07:37;;;;;;;;;28.00;22.00;;;;;1.52;95.03;100551.16;5053549;28;8878;-59
2020/12/15 11:10:04;;;;;;;;;83.50;60.25;;;;;1.36;94.63;100549.56;5017324;28;8981;-56
2020/12/15 11:12:31;;;;;;;;;48.50;28.00;;;;;1.60;94.73;100542.25;5062476;28;8839;-56
2020/12/15 11:14:58;;;;;;;;;23.75;19.50;;;;;1.65;94.26;100543.09;5051628;28;8961;-57
2020/12/15 11:17:25;;;;;;;;;30.75;24.00;;;;;1.51;94.62;100545.91;5052054;28;8920;-57
2020/12/15 11:19:53;;;;;;;;;42.75;34.00;;;;;1.62;94.85;100544.00;5051502;28;8855;-56
2020/12/15 11:22:20;;;;;;;;;22.75;15.25;;;;;1.56;94.85;100551.16;5051467;28;8904;-59
2020/12/15 11:24:47;;;;;;;;;52.75;38.75;;;;;1.55;94.97;100539.66;5040775;28;8828;-54
2020/12/15 11:27:15;;;;;;;;;55.00;41.25;;;;;1.84;95.16;100555.19;5056078;28;8867;-56
2020/12/15 11:29:43;;;;;;;;;28.50;23.75;;;;;1.95;94.56;100549.81;5059094;28;8847;-58
2020/12/15 11:32:28;;;;;;;;;29.25;24.00;;;;;1.81;94.99;100551.72;5058405;28;8872;-58
2020/12/15 11:34:56;;;;;;;;;19.25;14.25;;;;;1.70;94.63;100543.91;5051349;28;8849;-59